Time;durP1;ratioP1;P1;durP2;ratioP2;P2;SDS_P1;SDS_P2;PMS_P1;PMS_P2;Temp;Humidity;BMP_temperature;BMP_pressure;BME280_temperature;BME280_humidity;BME280_pressure;Samples;Min_cycle;Max_cycle;Signal;HPM_P1;HPM_P2
2024/03/26 00:02:02;;;;;;;11.10;4.07;;;;;;;12.11;53.30;98674.59;5065063;28;20052;-58
2024/03/26 00:04:29;;;;;;;7.60;3.93;;;;;;;12.12;53.37;98667.91;5060074;28;20051;-61
2024/03/26 00:06:56;;;;;;;9.43;3.75;;;;;;;11.94;53.94;98669.63;5066545;28;20294;-59
2024/03/26 00:09:25;;;;;;;10.20;3.83;;;;;;;11.74;54.46;98663.41;5067472;28;20040;-58
2024/03/26 00:11:51;;;;;;;7.38;3.67;;;;;;;11.79;54.06;98649.28;5067045;28;20043;-61
2024/03/26 00:14:18;;;;;;;11.63;3.88;;;;;;;11.68;54.52;98658.59;5066635;28;20079;-60
2024/03/26 00:16:45;;;;;;;9.80;3.72;;;;;;;11.76;54.53;98655.56;5033296;28;20055;-59
2024/03/26 00:19:11;;;;;;;9.85;3.95;;;;;;;11.86;54.06;98654.91;5033459;28;20056;-62
2024/03/26 00:21:37;;;;;;;12.50;3.97;;;;;;;11.93;53.92;98656.97;5065779;28;20737;-61
2024/03/26 00:24:04;;;;;;;5.93;3.50;;;;;;;11.86;54.28;98656.88;5066639;28;20048;-60
2024/03/26 00:26:31;;;;;;;12.20;3.70;;;;;;;11.89;54.12;98658.91;5065423;28;20056;-58
2024/03/26 00:28:57;;;;;;;10.02;3.92;;;;;;;12.02;54.19;98655.56;5065801;28;20079;-61
2024/03/26 00:31:24;;;;;;;8.82;4.03;;;;;;;11.70;54.89;98656.25;5066391;28;20040;-60
2024/03/26 00:33:50;;;;;;;9.25;4.10;;;;;;;11.98;54.30;98653.91;5042671;28;20053;-61
2024/03/26 00:36:16;;;;;;;8.90;3.92;;;;;;;11.63;55.04;98653.34;5046283;28;20051;-58
2024/03/26 00:38:42;;;;;;;9.90;4.13;;;;;;;11.57;55.66;98655.63;5056640;28;20057;-60
2024/03/26 00:41:09;;;;;;;11.27;4.38;;;;;;;11.55;55.83;98649.69;5061931;28;20574;-60
2024/03/26 00:43:35;;;;;;;11.05;4.03;;;;;;;11.60;55.96;98640.28;5034518;28;20460;-60
2024/03/26 00:46:02;;;;;;;10.65;4.57;;;;;;;11.70;55.78;98642.47;5028462;28;20048;-60
2024/03/26 00:48:28;;;;;;;9.60;4.45;;;;;;;11.55;56.29;98644.16;5057351;28;20048;-58
2024/03/26 00:50:54;;;;;;;7.93;3.95;;;;;;;11.58;56.25;98646.19;5046596;28;21592;-59
2024/03/26 00:53:20;;;;;;;10.45;4.07;;;;;;;11.55;56.11;98649.69;5046445;28;20408;-61
2024/03/26 00:55:47;;;;;;;10.10;3.95;;;;;;;11.45;56.33;98641.25;5045901;28;20052;-58
2024/03/26 00:58:13;;;;;;;13.05;4.45;;;;;;;11.48;56.52;98644.06;5057145;28;20744;-59
2024/03/26 01:00:40;;;;;;;11.07;4.10;;;;;;;11.64;56.17;98646.66;5061731;28;20729;-59
2024/03/26 01:03:06;;;;;;;9.07;4.07;;;;;;;11.42;56.75;98642.75;5062496;28;20068;-59
2024/03/26 01:05:32;;;;;;;8.43;4.13;;;;;;;11.64;56.36;98630.13;5046245;28;20424;-57
2024/03/26 01:07:59;;;;;;;7.88;3.75;;;;;;;11.58;56.69;98637.91;5046189;28;20057;-59
2024/03/26 01:10:25;;;;;;;8.95;3.90;;;;;;;11.68;56.42;98626.28;5038248;28;20052;-57
2024/03/26 01:12:51;;;;;;;7.93;3.60;;;;;;;11.66;56.28;98625.88;5065660;28;20609;-60
2024/03/26 01:15:18;;;;;;;7.30;3.65;;;;;;;11.82;55.93;98620.19;5066259;28;20079;-59
2024/03/26 01:17:45;;;;;;;9.43;3.70;;;;;;;11.85;55.90;98619.44;5065428;28;20056;-59
2024/03/26 01:20:12;;;;;;;9.32;4.10;;;;;;;11.76;55.75;98624.41;5049339;28;20053;-59
2024/03/26 01:22:39;;;;;;;9.65;3.80;;;;;;;11.64;56.32;98619.09;5065051;28;20053;-60
2024/03/26 01:25:07;;;;;;;6.95;3.88;;;;;;;11.70;56.63;98618.41;5066584;28;20669;-58
2024/03/26 01:27:34;;;;;;;9.13;3.90;;;;;;;11.75;56.90;98609.06;5068399;28;20056;-58
2024/03/26 01:30:00;;;;;;;10.35;3.83;;;;;;;11.70;57.32;98612.13;5051209;28;20048;-61
2024/03/26 01:32:27;;;;;;;8.43;4.18;;;;;;;11.80;57.68;98611.47;5048016;28;20052;-61
2024/03/26 01:34:53;;;;;;;10.80;3.95;;;;;;;11.56;59.00;98601.63;5051742;28;20049;-59
2024/03/26 01:37:20;;;;;;;9.13;4.32;;;;;;;11.68;58.93;98608.94;5052428;28;20044;-61
2024/03/26 01:39:46;;;;;;;10.32;4.80;;;;;;;11.79;59.32;98596.09;5042250;28;20048;-58
2024/03/26 01:42:12;;;;;;;9.60;4.53;;;;;;;11.65;60.33;98596.69;5073134;28;20052;-60
2024/03/26 01:44:38;;;;;;;8.88;4.13;;;;;;;11.58;61.05;98596.53;5060782;28;20619;-58
2024/03/26 01:47:05;;;;;;;9.65;4.32;;;;;;;11.73;60.72;98598.41;5065570;28;20060;-58
2024/03/26 01:49:32;;;;;;;12.63;4.57;;;;;;;11.53;62.21;98601.56;5069520;28;20045;-61
2024/03/26 01:51:59;;;;;;;7.93;4.10;;;;;;;11.32;63.45;98602.03;5069604;28;20051;-59
2024/03/26 01:54:26;;;;;;;10.25;4.80;;;;;;;11.34;63.58;98592.25;5052937;28;20056;-58
2024/03/26 01:56:54;;;;;;;13.48;5.07;;;;;;;11.22;64.91;98606.25;5056835;28;20053;-60
2024/03/26 01:59:21;;;;;;;9.23;4.45;;;;;;;11.11;65.53;98608.00;5031989;28;20053;-60
2024/03/26 02:01:49;;;;;;;11.45;4.95;;;;;;;11.16;65.47;98610.44;5049560;28;20063;-58
2024/03/26 02:04:15;;;;;;;10.85;4.78;;;;;;;11.43;65.37;98596.69;5049071;28;20060;-60
2024/03/26 02:06:41;;;;;;;13.55;4.88;;;;;;;11.44;64.98;98592.81;5059136;28;20096;-58
2024/03/26 02:09:07;;;;;;;10.07;4.32;;;;;;;11.28;66.17;98593.72;5052433;28;20056;-60
2024/03/26 02:11:34;;;;;;;13.43;4.93;;;;;;;11.14;66.89;98595.47;5052694;28;20055;-58
2024/03/26 02:14:00;;;;;;;9.75;4.75;;;;;;;11.29;66.60;98591.78;5057177;28;20045;-62
2024/03/26 02:16:26;;;;;;;9.43;4.32;;;;;;;11.30;66.46;98587.84;5054186;28;20045;-60
2024/03/26 02:18:53;;;;;;;10.13;4.97;;;;;;;11.42;66.12;98589.63;5048878;28;20052;-60
2024/03/26 02:21:19;;;;;;;9.70;4.85;;;;;;;11.39;66.66;98588.38;5048626;28;20061;-59
2024/03/26 02:23:45;;;;;;;10.40;4.50;;;;;;;11.56;66.01;98581.56;5048624;28;20049;-60
2024/03/26 02:26:16;;;;;;;9.50;4.82;;;;;;;11.45;66.37;98580.59;5062448;28;20098;-56
2024/03/26 02:28:42;;;;;;;;;;;;;;;11.36;66.89;98583.63;5065048;28;20056;-58
2024/03/26 02:31:08;;;;;;;11.63;5.15;;;;;;;11.30;67.04;98580.38;5063099;28;19925;-57
2024/03/26 02:33:34;;;;;;;9.88;5.22;;;;;;;11.30;67.01;98585.09;5041815;28;20053;-59
2024/03/26 02:36:01;;;;;;;9.63;4.80;;;;;;;11.28;66.88;98579.94;5049765;28;20056;-59
2024/03/26 02:38:27;;;;;;;9.48;5.10;;;;;;;11.35;67.00;98579.25;5055600;28;20057;-60
2024/03/26 02:40:53;;;;;;;11.63;4.70;;;;;;;11.51;66.44;98571.63;5048205;28;20175;-59
2024/03/26 02:43:20;;;;;;;9.07;4.50;;;;;;;11.52;65.95;98576.00;5048520;28;20053;-57
2024/03/26 02:45:46;;;;;;;9.88;4.45;;;;;;;11.45;66.24;98570.38;5048550;28;20068;-59
2024/03/26 02:48:12;;;;;;;9.05;4.90;;;;;;;11.39;66.11;98571.84;5041695;28;20060;-58
2024/03/26 02:50:39;;;;;;;10.93;4.45;;;;;;;11.46;65.99;98565.63;5048169;28;20354;-57
2024/03/26 02:53:05;;;;;;;12.23;4.90;;;;;;;11.52;66.03;98569.69;5059980;28;20048;-59
2024/03/26 02:55:31;;;;;;;10.15;4.30;;;;;;;11.70;65.66;98557.75;5068166;28;20049;-59
2024/03/26 02:57:58;;;;;;;10.07;4.78;;;;;;;11.84;64.87;98559.91;5067880;28;20060;-60
2024/03/26 03:00:24;;;;;;;11.40;4.85;;;;;;;11.80;64.69;98551.56;5068228;28;20595;-60
2024/03/26 03:02:50;;;;;;;12.57;4.47;;;;;;;11.70;65.01;98548.72;5051807;28;20056;-60
2024/03/26 03:05:16;;;;;;;10.55;5.50;;;;;;;11.79;64.95;98546.44;5067890;28;20045;-59
2024/03/26 03:07:43;;;;;;;12.32;5.43;;;;;;;11.68;65.32;98546.28;5047772;28;20064;-60
2024/03/26 03:10:09;;;;;;;9.27;4.43;;;;;;;11.69;65.14;98544.34;5031303;28;20045;-58
2024/03/26 03:12:35;;;;;;;10.23;4.70;;;;;;;11.57;65.50;98537.06;5048365;28;20056;-56
2024/03/26 03:15:02;;;;;;;8.65;4.45;;;;;;;11.69;65.98;98544.34;5052783;28;20049;-59
2024/03/26 03:17:28;;;;;;;10.40;4.60;;;;;;;11.62;66.21;98541.44;5051030;28;20396;-57
2024/03/26 03:19:54;;;;;;;10.73;4.40;;;;;;;11.60;66.33;98546.53;5065043;28;20052;-59
2024/03/26 03:22:20;;;;;;;8.18;4.15;;;;;;;11.58;66.55;98540.59;5059587;28;20063;-60
2024/03/26 03:24:47;;;;;;;11.35;4.60;;;;;;;11.44;67.17;98541.19;5065800;28;20049;-58
2024/03/26 03:27:13;;;;;;;9.60;4.68;;;;;;;11.66;67.35;98542.34;5047415;28;20522;-60
2024/03/26 03:29:39;;;;;;;10.77;4.45;;;;;;;11.75;67.21;98535.34;5047933;28;20518;-59
2024/03/26 03:32:06;;;;;;;11.43;5.10;;;;;;;11.63;67.64;98537.53;5030816;28;20060;-60
2024/03/26 03:34:32;;;;;;;10.73;4.28;;;;;;;11.66;68.09;98542.34;5046243;28;20056;-59
2024/03/26 03:36:58;;;;;;;8.18;4.45;;;;;;;11.65;68.28;98537.97;5045213;28;20061;-59
2024/03/26 03:39:24;;;;;;;11.02;4.60;;;;;;;11.69;68.59;98542.38;5066806;28;20044;-59
2024/03/26 03:41:51;;;;;;;9.68;4.43;;;;;;;11.55;69.35;98530.31;5062505;28;20045;-58
2024/03/26 03:44:17;;;;;;;11.25;4.25;;;;;;;11.69;69.31;98536.88;5054310;28;20053;-59
2024/03/26 03:46:43;;;;;;;11.95;4.22;;;;;;;11.74;69.77;98538.50;5057891;28;20049;-59
2024/03/26 03:49:09;;;;;;;10.57;4.88;;;;;;;11.54;70.02;98537.03;5048916;28;20518;-60
2024/03/26 03:51:36;;;;;;;8.52;4.40;;;;;;;11.58;70.11;98541.41;5067043;28;20049;-60
2024/03/26 03:54:02;;;;;;;11.00;4.40;;;;;;;11.49;70.55;98549.16;5050685;28;20443;-59
2024/03/26 03:56:28;;;;;;;9.02;4.35;;;;;;;11.60;70.53;98552.84;5066972;28;20063;-62
2024/03/26 03:58:55;;;;;;;10.77;4.72;;;;;;;11.56;70.73;98548.47;5066933;28;20056;-61
2024/03/26 04:01:21;;;;;;;11.15;5.15;;;;;;;11.57;70.29;98553.63;5047702;28;20061;-63
2024/03/26 04:03:48;;;;;;;11.15;5.20;;;;;;;11.63;70.60;98548.56;5046100;28;20080;-61
2024/03/26 04:06:14;;;;;;;13.65;5.40;;;;;;;11.38;71.07;98548.22;5046782;28;20053;-62
2024/03/26 04:08:40;;;;;;;9.20;4.45;;;;;;;11.27;72.30;98552.75;5038097;28;20048;-62
2024/03/26 04:11:07;;;;;;;10.85;4.63;;;;;;;11.48;72.77;98549.53;5066651;28;20056;-61
2024/03/26 04:13:33;;;;;;;10.73;5.22;;;;;;;11.50;71.98;98544.44;5059998;28;20056;-61
2024/03/26 04:16:03;;;;;;;9.40;4.65;;;;;;;11.21;72.98;98552.28;5062727;28;20060;-61
2024/03/26 04:18:29;;;;;;;8.23;4.78;;;;;;;11.28;72.85;98554.34;5055122;28;20056;-62
2024/03/26 04:20:55;;;;;;;9.80;4.63;;;;;;;11.27;72.90;98547.25;5046797;28;20052;-60
2024/03/26 04:23:22;;;;;;;9.93;5.00;;;;;;;11.28;73.46;98551.56;5046271;28;20057;-61
2024/03/26 04:25:58;;;;;;;7.88;4.40;;;;;;;11.07;74.58;98548.50;5046734;28;20060;-61
2024/03/26 04:28:26;;;;;;;10.57;4.90;;;;;;;11.00;75.53;98562.19;5047136;28;20053;-62
2024/03/26 04:30:53;;;;;;;8.55;4.93;;;;;;;11.07;74.87;98549.28;5030292;28;20065;-59
2024/03/26 04:33:19;;;;;;;10.27;4.85;;;;;;;10.88;76.41;98554.09;5046304;28;20052;-61
2024/03/26 04:35:46;;;;;;;9.43;4.80;;;;;;;10.86;77.10;98553.66;5046088;28;20795;-60
2024/03/26 04:38:13;;;;;;;12.95;5.70;;;;;;;10.92;77.32;98544.72;5049260;28;20052;-60
2024/03/26 04:40:39;;;;;;;7.47;4.38;;;;;;;10.95;77.63;98546.72;5049844;28;20053;-59
2024/03/26 04:43:06;;;;;;;10.13;4.72;;;;;;;11.13;76.60;98534.06;5066610;28;20499;-58
2024/03/26 04:45:33;;;;;;;9.68;4.88;;;;;;;10.87;77.74;98539.53;5058072;28;20060;-61
2024/03/26 04:48:00;;;;;;;11.93;5.18;;;;;;;10.84;79.28;98539.47;5029642;28;20063;-59
2024/03/26 04:50:26;;;;;;;10.30;4.78;;;;;;;11.03;78.95;98533.88;5046467;28;20053;-59
2024/03/26 04:52:53;;;;;;;10.60;5.25;;;;;;;10.83;79.04;98541.41;5046197;28;20048;-60
2024/03/26 04:55:20;;;;;;;9.40;4.97;;;;;;;10.81;79.81;98538.22;5055348;28;20068;-60
2024/03/26 04:57:46;;;;;;;12.55;4.68;;;;;;;10.97;79.94;98533.41;5046614;28;20064;-58
2024/03/26 05:00:13;;;;;;;10.02;4.78;;;;;;;11.11;78.98;98519.03;5043694;28;20788;-62
2024/03/26 05:02:41;;;;;;;8.23;4.35;;;;;;;11.03;79.33;98523.66;5053112;28;20060;-59
2024/03/26 05:05:08;;;;;;;9.20;4.80;;;;;;;11.04;79.17;98518.94;5041734;28;20060;-61
2024/03/26 05:07:35;;;;;;;10.43;4.90;;;;;;;10.93;79.96;98521.50;5069729;28;20047;-59
2024/03/26 05:10:03;;;;;;;11.00;4.45;;;;;;;10.89;80.85;98531.69;5071251;28;20056;-59
2024/03/26 05:12:30;;;;;;;9.10;4.57;;;;;;;10.90;81.81;98521.44;5072889;28;20052;-59
2024/03/26 05:14:56;;;;;;;10.95;4.13;;;;;;;10.81;82.43;98532.72;5072480;28;20041;-59
2024/03/26 05:17:22;;;;;;;9.18;4.68;;;;;;;10.78;83.02;98532.66;5056389;28;20052;-60
2024/03/26 05:19:49;;;;;;;12.02;4.93;;;;;;;10.87;82.78;98528.50;5055057;28;20057;-59
2024/03/26 05:22:15;;;;;;;9.80;4.95;;;;;;;11.00;82.19;98524.38;5071935;28;20063;-61
2024/03/26 05:24:41;;;;;;;10.65;4.22;;;;;;;10.85;83.20;98532.78;5072266;28;20053;-60
2024/03/26 05:27:08;;;;;;;10.10;4.90;;;;;;;10.93;83.22;98529.78;5071692;28;20053;-60
2024/03/26 05:29:36;;;;;;;10.43;4.68;;;;;;;10.91;83.83;98531.31;5055578;28;20504;-60
2024/03/26 05:32:04;;;;;;;10.15;4.15;;;;;;;11.06;83.54;98528.44;5055193;28;20751;-61
2024/03/26 05:37:27;;;;;;;10.57;4.68;;;;;;;10.82;86.13;98533.53;5051948;28;20057;-59
2024/03/26 05:39:54;;;;;;;9.52;4.07;;;;;;;10.92;85.89;98530.16;5072358;28;20052;-60
2024/03/26 05:42:21;;;;;;;10.93;4.22;;;;;;;10.78;87.22;98541.72;5036946;28;20060;-61
2024/03/26 05:44:47;;;;;;;10.45;4.28;;;;;;;10.85;87.57;98530.03;5054913;28;20617;-59
2024/03/26 05:47:14;;;;;;;10.43;4.72;;;;;;;10.74;87.90;98535.34;5051882;28;20762;-61
2024/03/26 05:49:41;;;;;;;13.27;5.80;;;;;;;10.96;88.34;98529.06;5035090;28;20443;-61
2024/03/26 05:52:07;;;;;;;15.13;5.22;;;;;;;11.15;86.70;98520.72;5052406;28;20056;-60
2024/03/26 05:54:34;;;;;;;13.55;4.82;;;;;;;10.93;89.01;98517.97;5039025;28;20822;-61
2024/03/26 05:57:00;;;;;;;11.88;4.68;;;;;;;10.85;89.21;98521.75;5071421;28;20060;-61
2024/03/26 05:59:27;;;;;;;10.45;4.53;;;;;;;10.74;90.89;98523.56;5056111;28;20586;-59
2024/03/26 06:01:53;;;;;;;13.25;5.20;;;;;;;10.85;90.93;98516.25;5055480;28;20060;-62
2024/03/26 06:04:19;;;;;;;9.45;4.50;;;;;;;10.67;91.11;98523.44;5071900;28;20060;-58
2024/03/26 06:06:46;;;;;;;10.80;5.30;;;;;;;10.73;91.95;98514.50;5072431;28;20056;-61
2024/03/26 06:09:12;;;;;;;8.20;4.43;;;;;;;11.04;91.39;98513.41;5066679;28;20051;-59
2024/03/26 06:11:38;;;;;;;9.57;4.47;;;;;;;10.81;92.10;98507.94;5051917;28;20080;-59
2024/03/26 06:14:05;;;;;;;8.98;4.55;;;;;;;10.85;93.31;98506.03;5067982;28;20059;-61
2024/03/26 06:16:31;;;;;;;10.27;4.97;;;;;;;10.87;94.12;98509.22;5068275;28;20680;-59
2024/03/26 06:18:58;;;;;;;11.90;4.85;;;;;;;11.07;92.82;98509.94;5042130;28;20159;-59
2024/03/26 06:21:24;;;;;;;14.13;5.15;;;;;;;10.98;93.65;98512.16;5051911;28;20056;-59
2024/03/26 06:23:51;;;;;;;12.60;4.47;;;;;;;10.98;94.02;98515.69;5055934;28;20048;-59
2024/03/26 06:26:17;;;;;;;8.38;4.53;;;;;;;10.90;95.39;98513.19;5068642;28;20063;-58
2024/03/26 06:28:43;;;;;;;10.10;4.60;;;;;;;10.93;95.84;98513.25;5067886;28;20060;-60
2024/03/26 06:31:10;;;;;;;9.05;4.78;;;;;;;11.00;95.97;98512.59;5067769;28;20059;-61
2024/03/26 06:33:36;;;;;;;12.73;4.53;;;;;;;10.99;96.84;98514.53;5053762;28;20601;-62
2024/03/26 06:36:03;;;;;;;9.13;4.60;;;;;;;11.13;96.16;98509.25;5067456;28;20059;-61
2024/03/26 06:38:29;;;;;;;9.80;5.63;;;;;;;11.08;96.86;98512.31;5062219;28;20059;-61
2024/03/26 06:40:57;;;;;;;9.75;4.70;;;;;;;11.18;96.87;98514.44;5068148;28;20057;-62
2024/03/26 06:43:23;;;;;;;8.43;4.50;;;;;;;11.02;97.79;98513.00;5068601;28;20052;-62
2024/03/26 06:45:49;;;;;;;10.70;4.60;;;;;;;10.99;99.02;98510.97;5054837;28;20049;-61
2024/03/26 06:48:16;;;;;;;11.82;4.80;;;;;;;11.03;99.18;98509.88;5048487;28;20057;-60
2024/03/26 06:50:42;;;;;;;10.43;5.25;;;;;;;11.07;99.80;98505.22;5060830;28;20047;-61
2024/03/26 06:53:09;;;;;;;9.35;4.93;;;;;;;11.08;100.00;98506.81;5068355;28;20052;-62
2024/03/26 06:55:35;;;;;;;8.65;4.70;;;;;;;11.14;100.00;98508.06;5068010;28;20052;-61
2024/03/26 06:58:01;;;;;;;9.65;4.85;;;;;;;11.15;100.00;98498.66;5068209;28;20052;-61
2024/03/26 07:00:28;;;;;;;12.25;5.15;;;;;;;11.27;100.00;98497.63;5034090;28;20057;-61
2024/03/26 07:02:57;;;;;;;14.93;5.53;;;;;;;11.32;100.00;98492.59;5068037;28;20059;-61
2024/03/26 07:05:24;;;;;;;9.68;5.03;;;;;;;11.28;100.00;98489.00;5065614;28;20649;-61
2024/03/26 07:07:50;;;;;;;11.63;4.75;;;;;;;11.35;100.00;98493.81;5050928;28;20053;-61
2024/03/26 07:10:16;;;;;;;11.13;4.75;;;;;;;11.44;100.00;98488.06;5030792;28;20056;-61
2024/03/26 07:12:43;;;;;;;13.60;5.28;;;;;;;11.42;100.00;98482.88;5048486;28;20049;-61
2024/03/26 07:15:10;;;;;;;9.90;4.82;;;;;;;11.44;100.00;98488.06;5049852;28;20045;-64
2024/03/26 07:17:38;;;;;;;11.05;5.03;;;;;;;11.46;100.00;98482.94;5068083;28;20052;-61
2024/03/26 07:20:09;;;;;;;11.35;5.15;;;;;;;11.52;100.00;98474.00;5068396;28;20049;-59
2024/03/26 07:22:37;;;;;;;9.55;5.07;;;;;;;11.52;100.00;98475.94;5068339;28;20687;-61
2024/03/26 07:25:04;;;;;;;12.70;5.43;;;;;;;11.70;100.00;98480.53;5051354;28;20047;-61
2024/03/26 07:27:30;;;;;;;9.20;4.82;;;;;;;11.75;100.00;98476.66;5067596;28;20160;-63
2024/03/26 07:29:57;;;;;;;10.13;4.88;;;;;;;11.94;100.00;98480.03;5067663;28;20048;-60
2024/03/26 07:32:23;;;;;;;9.23;5.20;;;;;;;11.84;100.00;98472.44;5067788;28;20049;-61
2024/03/26 07:34:52;;;;;;;9.15;4.97;;;;;;;11.94;100.00;98465.47;5067517;28;20044;-62
2024/03/26 07:37:19;;;;;;;14.02;5.72;;;;;;;12.14;99.54;98473.19;5050745;28;20112;-62
2024/03/26 07:39:45;;;;;;;18.38;5.75;;;;;;;11.86;100.00;98472.06;5060017;28;20045;-62
2024/03/26 07:42:11;;;;;;;8.85;5.75;;;;;;;12.01;100.00;98473.81;5066280;28;20052;-66
2024/03/26 07:44:40;;;;;;;11.70;5.13;;;;;;;11.96;100.00;98472.19;5050595;28;20064;-62
2024/03/26 07:47:07;;;;;;;10.00;4.88;;;;;;;11.95;100.00;98461.53;5067379;28;20052;-62
2024/03/26 07:49:33;;;;;;;15.23;6.03;;;;;;;11.89;100.00;98466.59;5067022;28;20048;-60
2024/03/26 07:51:59;;;;;;;11.98;5.68;;;;;;;12.03;100.00;98472.25;5067341;28;20550;-61
2024/03/26 07:54:25;;;;;;;14.45;5.38;;;;;;;12.10;100.00;98466.81;5067093;28;20048;-59
2024/03/26 07:56:52;;;;;;;10.50;5.90;;;;;;;12.13;100.00;98460.53;5065534;28;20079;-62
2024/03/26 07:59:18;;;;;;;12.27;5.75;;;;;;;11.96;100.00;98465.91;5067294;28;20060;-61
2024/03/26 08:01:44;;;;;;;15.20;7.18;;;;;;;12.00;100.00;98462.00;5050362;28;20052;-63
2024/03/26 08:04:10;;;;;;;11.68;6.38;;;;;;;12.16;100.00;98470.84;5066813;28;20052;-62
2024/03/26 08:06:37;;;;;;;17.48;7.18;;;;;;;12.25;100.00;98463.06;5066673;28;20056;-57
2024/03/26 08:09:03;;;;;;;14.60;7.15;;;;;;;12.14;100.00;98462.16;5067162;28;20055;-58
2024/03/26 08:11:30;;;;;;;10.95;7.28;;;;;;;12.36;100.00;98457.66;5067029;28;20510;-55
2024/03/26 08:13:56;;;;;;;11.15;6.85;;;;;;;12.20;100.00;98459.84;5066833;28;20044;-59
2024/03/26 08:16:22;;;;;;;10.05;5.85;;;;;;;12.14;100.00;98459.38;5066779;28;20746;-55
2024/03/26 08:18:49;;;;;;;14.00;6.85;;;;;;;12.05;100.00;98460.84;5067075;28;20044;-57
2024/03/26 08:21:15;;;;;;;17.25;6.85;;;;;;;12.11;100.00;98456.59;5050574;28;20052;-56
2024/03/26 08:23:41;;;;;;;11.32;6.15;;;;;;;12.16;100.00;98451.53;5049171;28;20712;-59
2024/03/26 08:26:08;;;;;;;14.35;6.07;;;;;;;12.10;100.00;98449.50;5066551;28;20629;-58
2024/03/26 08:28:35;;;;;;;10.55;5.55;;;;;;;12.15;100.00;98446.38;5067011;28;20048;-58
2024/03/26 08:31:01;;;;;;;12.18;5.50;;;;;;;12.26;100.00;98452.78;5061978;28;20060;-63
2024/03/26 08:33:27;;;;;;;13.98;5.75;;;;;;;12.22;100.00;98441.72;5065727;28;20061;-62
2024/03/26 08:35:54;;;;;;;9.55;5.22;;;;;;;12.21;100.00;98440.13;5065489;28;20055;-63
2024/03/26 08:38:20;;;;;;;12.18;5.10;;;;;;;12.07;100.00;98437.22;5066769;28;20052;-64
2024/03/26 08:40:47;;;;;;;13.32;5.75;;;;;;;12.65;100.00;98436.59;5058913;28;20588;-62
2024/03/26 08:43:13;;;;;;;13.98;5.70;;;;;;;12.38;100.00;98436.75;5021567;28;20488;-63
2024/03/26 08:45:39;;;;;;;13.80;5.18;;;;;;;12.35;100.00;98440.28;5057882;28;20041;-64
2024/03/26 08:48:08;;;;;;;10.93;5.15;;;;;;;12.63;100.00;98436.16;5066375;28;20621;-62
2024/03/26 08:50:34;;;;;;;13.27;5.20;;;;;;;12.29;100.00;98433.50;5065575;28;20052;-62
2024/03/26 08:53:00;;;;;;;10.63;4.78;;;;;;;12.34;100.00;98433.16;5066745;28;20049;-60
2024/03/26 08:55:27;;;;;;;7.90;4.55;;;;;;;12.46;100.00;98423.81;5049424;28;20049;-61
2024/03/26 08:57:53;;;;;;;11.75;5.05;;;;;;;12.48;100.00;98428.94;5056227;28;20044;-62
2024/03/26 09:00:19;;;;;;;15.27;4.60;;;;;;;12.52;100.00;98421.50;5057669;28;20060;-62
2024/03/26 09:02:46;;;;;;;10.30;4.57;;;;;;;12.43;100.00;98419.84;5060108;28;20048;-64
2024/03/26 09:05:12;;;;;;;10.55;4.65;;;;;;;12.17;100.00;98419.97;5048324;28;20052;-61
2024/03/26 09:07:41;;;;;;;9.98;4.40;;;;;;;12.30;100.00;98424.06;5032484;28;20523;-63
2024/03/26 09:10:08;;;;;;;10.35;4.63;;;;;;;12.30;100.00;98421.31;5038894;28;20044;-62
2024/03/26 09:12:35;;;;;;;10.88;4.30;;;;;;;12.23;100.00;98425.97;5050833;28;20044;-61
2024/03/26 09:15:02;;;;;;;8.65;3.92;;;;;;;12.33;100.00;98412.25;5062472;28;20731;-62
2024/03/26 09:17:28;;;;;;;11.20;3.88;;;;;;;12.10;100.00;98419.91;5063694;28;20817;-60
2024/03/26 09:19:55;;;;;;;8.00;3.60;;;;;;;12.23;100.00;98414.91;5039483;28;20075;-58
2024/03/26 09:22:21;;;;;;;10.52;4.00;;;;;;;12.24;100.00;98411.78;5057656;28;20057;-60
2024/03/26 09:24:48;;;;;;;11.65;4.05;;;;;;;12.38;100.00;98414.66;5056308;28;20044;-62
2024/03/26 09:27:14;;;;;;;8.90;3.38;;;;;;;12.44;100.00;98404.06;5058998;28;20048;-60
2024/03/26 09:29:40;;;;;;;9.25;4.18;;;;;;;12.26;100.00;98414.94;5058207;28;20052;-58
2024/03/26 09:32:08;;;;;;;10.55;4.22;;;;;;;12.43;100.00;98408.78;5055615;28;20049;-61
2024/03/26 09:34:35;;;;;;;8.35;3.92;;;;;;;12.43;100.00;98410.75;5050541;28;20056;-60
2024/03/26 09:37:02;;;;;;;14.35;4.55;;;;;;;12.30;100.00;98403.94;5057248;28;20048;-62
2024/03/26 09:39:28;;;;;;;11.35;3.90;;;;;;;12.41;100.00;98402.84;5059079;28;20045;-57
2024/03/26 09:41:57;;;;;;;13.70;3.80;;;;;;;12.43;100.00;98396.94;5057167;28;20044;-58
2024/03/26 09:44:25;;;;;;;8.52;3.75;;;;;;;12.40;100.00;98398.53;5051002;28;20049;-60
2024/03/26 09:46:51;;;;;;;12.75;3.58;;;;;;;12.39;100.00;98402.47;5054327;28;20052;-60
2024/03/26 09:49:19;;;;;;;8.02;3.22;;;;;;;12.40;100.00;98408.75;5053272;28;20057;-59
2024/03/26 09:51:47;;;;;;;9.85;3.00;;;;;;;12.36;100.00;98403.22;5065494;28;20416;-60
2024/03/26 09:54:14;;;;;;;7.15;2.90;;;;;;;12.40;100.00;98394.97;5056023;28;20575;-61
2024/03/26 09:56:41;;;;;;;9.52;3.15;;;;;;;12.30;100.00;98393.72;5023612;28;20553;-57
2024/03/26 09:59:07;;;;;;;17.63;3.28;;;;;;;12.35;100.00;98395.31;5051264;28;20053;-62
2024/03/26 10:01:34;;;;;;;8.50;2.95;;;;;;;12.46;100.00;98396.22;5039827;28;20087;-60
2024/03/26 10:04:00;;;;;;;6.85;2.15;;;;;;;12.56;100.00;98389.16;5060561;28;20044;-60
2024/03/26 10:06:27;;;;;;;9.20;2.70;;;;;;;12.58;100.00;98382.09;5042517;28;20055;-61
2024/03/26 10:08:53;;;;;;;8.68;2.88;;;;;;;12.48;99.41;98375.31;5061160;28;20051;-59
2024/03/26 10:11:19;;;;;;;8.70;2.60;;;;;;;12.43;99.91;98383.94;5063028;28;20059;-60
2024/03/26 10:13:45;;;;;;;7.70;2.40;;;;;;;12.66;99.51;98375.44;5068307;28;20057;-59
2024/03/26 10:16:12;;;;;;;13.90;2.70;;;;;;;12.37;98.46;98374.44;5038572;28;20060;-59
2024/03/26 10:18:38;;;;;;;8.77;2.92;;;;;;;12.42;98.75;98376.03;5054673;28;20427;-59
2024/03/26 10:21:05;;;;;;;7.50;2.75;;;;;;;12.48;98.38;98369.00;5055672;28;20048;-61
2024/03/26 10:23:32;;;;;;;7.57;2.60;;;;;;;12.58;97.60;98370.25;5057230;28;20048;-60
2024/03/26 10:25:58;;;;;;;9.02;2.63;;;;;;;12.64;97.36;98365.97;5049515;28;20480;-58
2024/03/26 10:28:25;;;;;;;8.43;2.65;;;;;;;12.53;96.98;98362.31;5050273;28;20662;-60
2024/03/26 10:30:52;;;;;;;6.20;2.53;;;;;;;12.50;98.49;98360.34;5052024;28;20036;-61
2024/03/26 10:33:19;;;;;;;8.43;2.72;;;;;;;12.63;98.47;98359.66;5041288;28;20053;-61
2024/03/26 10:35:50;;;;;;;7.13;2.65;;;;;;;12.67;97.62;98354.16;5048579;28;20056;-61
2024/03/26 10:38:19;;;;;;;8.55;2.67;;;;;;;12.81;96.35;98357.00;5052057;28;20562;-59
2024/03/26 10:41:11;;;;;;;7.15;3.08;;;;;;;12.86;96.16;98345.59;5059954;28;20052;-60
2024/03/26 10:43:38;;;;;;;8.43;2.88;;;;;;;12.74;96.37;98340.38;5049411;28;20060;-58
2024/03/26 10:46:05;;;;;;;6.18;3.10;;;;;;;12.77;95.55;98336.84;5042456;28;20466;-60
2024/03/26 10:48:35;;;;;;;;;;;;;;;12.78;95.44;98330.16;5053812;28;20049;-61
2024/03/26 10:51:02;;;;;;;8.75;2.78;;;;;;;12.78;94.99;98322.63;5039589;28;19924;-61
2024/03/26 10:53:29;;;;;;;11.32;2.92;;;;;;;12.77;95.11;98315.53;5043028;28;20053;-60
2024/03/26 10:55:58;;;;;;;5.63;2.60;;;;;;;12.62;95.52;98322.16;5074551;28;20052;-60
2024/03/26 10:58:25;;;;;;;7.00;2.78;;;;;;;12.63;96.56;98314.66;5063438;28;20044;-60
2024/03/26 11:00:52;;;;;;;10.45;4.50;;;;;;;12.38;97.78;98326.31;5066693;28;20052;-60
2024/03/26 11:03:19;;;;;;;9.07;3.35;;;;;;;12.76;95.59;98308.41;5060764;28;20833;-60
2024/03/26 11:05:45;;;;;;;8.13;4.10;;;;;;;12.74;95.61;98310.00;5048069;28;20052;-61
2024/03/26 11:08:18;;;;;;;8.40;2.90;;;;;;;12.98;94.30;98307.38;5048267;28;20516;-61
2024/03/26 11:11:06;;;;;;;7.00;2.95;;;;;;;13.17;92.82;98298.78;5044831;28;20506;-61
2024/03/26 11:13:34;;;;;;;8.57;2.88;;;;;;;13.17;93.53;98298.78;5048576;28;20053;-61
2024/03/26 11:16:02;;;;;;;10.48;3.22;;;;;;;13.05;93.46;98296.38;5048678;28;20049;-64
2024/03/26 11:18:30;;;;;;;7.13;2.88;;;;;;;13.01;94.03;98292.78;5054388;28;20067;-63
2024/03/26 11:21:08;;;;;;;8.57;3.47;;;;;;;12.80;94.29;98295.44;5051768;28;20056;-63
2024/03/26 11:23:35;;;;;;;6.65;3.28;;;;;;;13.05;94.35;98282.56;5067157;28;20749;-63
2024/03/26 11:26:02;;;;;;;8.30;3.85;;;;;;;13.08;93.88;98284.53;5050675;28;20055;-65
2024/03/26 11:28:32;;;;;;;8.18;3.17;;;;;;;13.00;94.38;98284.88;5048359;28;20052;-63